الصفحة الرئيسية
METAR-TAF:

METAR-TAF

مطار :

طشقند, أوزبكستان

دائرة عرض: 41-16N, خط طول: 069-16E, ارتفاع: 489 متر

مراقبة الطقس الحالي

تاريخ ووقت الإصدار 43 دقيقة قبل الساعة 19:30UTC
ريح 6 عقدة من الشرق, الاتجاه يتراوح بين الشرق/الشمال الشرقي و الجنوب الشرقي
درجة الحرارة 29°درجة مئوية
الرطوبة 40%
ضغط 999 hPa
الرؤية 10 كم أو أكثر
الغيوم لا تقل 1500 م ولا وجود لمزنة ركامية السحاب الأسود

METAR: UTTT 221930Z 10006KT 070V130 CAVOK 29/14 Q0999 R08R/CLRD70 NOSIG

زمن: 01:13 (20:13 UTC)

توقعات

تاريخ ووقت الإصدار 3ساعات و 13 دقيقة قبل الساعة 17:00UTC
التوقعات صالحة من22 الساعة 18 UTC إلى 23 الساعة 18 UTC
ريح 10 عقدة من الشرق
الرؤية 10 كم أو أكثر
الغيوم لا تقل 1500 م ولا وجود لمزنة ركامية السحاب الأسود
مؤقت
من 23 الساعة 09 UTC إلى 23 الساعة 19 UTC
ريح 15 عقدة من الغرب تتزايد حتى 25 عقدة
غيوم قليلة على ارتفاع 6000 قدم, مزنة ركامية.

TAF: UTTT 221700Z 2218/2318 08010KT CAVOK TX42/2310Z TEMPO 2309/2319 26015G25KT FEW060CB

أرصاد الطقس والتوقعات من أكثر من 4000 مطار (تقارير الطقس للمطار METAR والتنبؤ بالطقس بالمطارTAF).

المحطات المتاحة هي النقط الصفراء والحمراء على الخريطة.

حرك المؤشر فوق النقطة لمعرفة اسم المحطة.

ثم انقر لمعرفة أرصاد وتوقعات الطقس.

لتغيير الخارطة: اضغط على الأزرار الخضراء مع رمز الصليب الأسود للتكبير. على الزر الأخضر مع شرطة للتصغير، أو على الأسهم الخضراء للخرائط المجاورة.


METAR-TAF: